Airfield :
LOGIN :

Register | Disclaimer

   EN    FR    IT 

 










Legend :    VFR   Marginal VFR   IFR   Intensive IFR   Very Intensive IFR
Visi :
Ceiling :
>= 8 km
>= 3000ft
5 to 8 km
1000 to 3000 ft
1500m to 5 km
500 to 1000 ft
800 to 1500m
200 to 500 ft
< 800m
< 200 ft
Symbols :   Thunderstorms  Fog  Heavy snow  Heavy precipitations  Wind > 20 kt
SIGMETs :     Misc.  Thunderstorms  Icing  Turbulence  Mountain Waves  Volcanic Ashes






- Airport Elevation : 614 ft
- IATA code : CRL


EBCI - Charleroi

CURRENT METAR :
  • 090920Z 20012KT 9999 -RA SCT005 BKN007 BKN012 01/00 Q1004 NOSIG

EXPIRED METARs :
  • 090850Z 21013KT 9000 -RASN SCT004 BKN007 BKN011 01/00 Q1004 TEMPO 3000 -SNRA
  • 090820Z 21013KT 4500 -SNRA BKN005 BKN007 01/M00 Q1004 TEMPO 3000 -SNRA
  • 090750Z 21011KT 5000 -RASN BKN006 BKN009 01/00 Q1004 TEMPO 3000 -SNRA BKN004
  • 090720Z 21012KT 7000 -RASN BKN007 BKN010 02/01 Q1004 TEMPO 4000 -SNRA BKN005
  • 090650Z 21009KT 9000 -RASN BKN008 BKN015 01/00 Q1004 TEMPO 4000 -SNRA BKN005

TAF TAF EBCI
Valid from the 09 at 06:00 until the 10 at 12:00 UTC


090510Z 0906/1012 20009KT 9999 SCT008 BKN030
BECMG 0906/0908 SCT004 BKN008
PROB40
TEMPO 0907/0915 3500 -RADZ RA BKN004
PROB30
TEMPO 0906/0910 2500 -RASN BKN003
BECMG 0915/0918 SCT008 BKN014
BECMG 0923/1002 BKN008
PROB40
TEMPO 1002/1012 4000 RA
BECMG 1009/1012 28016G26KT



MET'MAP, your aeronautical weather chart ! - Copyright ORBIFLY December 2007 - Disclaimer

ORBIFLY MET'MAP TEAM :

Programming & Development : Alexandra Zaïnal
Concept & original design : Baudouin d'Aumeries
Assistance for programming : Marc-Olivier Méhu
Technical & hardware support : Manuel Goepfert

Contact : metmap@orbifly.com




SOURCES & CREDITS :

   NOAA